DIELE EDDK-EDXW
Flight info
| Callsign | DIELE |
|---|---|
| Flight time | N/A |
| Altitude | 24000 |
| Route | PODIP7M/31L PODIP Y867 BADGO Z850 HMM/N0255F250 Z529 ITMIZ/N0254F230 Z529 SUQIF DCT ABFAD DCT OLDIP |
| Aircraft | BE60/L-SDFGRY/C |
Departure
| Time | 2026-05-04 19:08 |
|---|---|
| Airport | Cologne Bonn Airport (EDDK) |
Arrival
| Time | N/A |
|---|---|
| Airport | Westerland Sylt Airport (EDXW) |
| Time | Latitude | Longitude | Altitude | Speed | Heading |
|---|---|---|---|---|---|
| 2026-05-04 18:57 | 50.87148 | 7.12554 | 230 ft | 0 kts | 137° |
| 2026-05-04 19:04 | 50.87141 | 7.12565 | 230 ft | 4 kts | 138° |
| 2026-05-04 19:05 | 50.87089 | 7.12569 | 232 ft | 16 kts | 184° |
| 2026-05-04 19:05 | 50.86951 | 7.12631 | 235 ft | 25 kts | 138° |
| 2026-05-04 19:05 | 50.86821 | 7.12821 | 238 ft | 26 kts | 136° |
| 2026-05-04 19:05 | 50.86681 | 7.13023 | 243 ft | 27 kts | 138° |
| 2026-05-04 19:06 | 50.86550 | 7.13212 | 248 ft | 22 kts | 137° |
| 2026-05-04 19:06 | 50.86453 | 7.13356 | 250 ft | 16 kts | 137° |
| 2026-05-04 19:06 | 50.86380 | 7.13453 | 251 ft | 13 kts | 167° |
| 2026-05-04 19:06 | 50.86291 | 7.13320 | 250 ft | 23 kts | 237° |
| 2026-05-04 19:07 | 50.86285 | 7.13240 | 249 ft | 4 kts | 321° |
| 2026-05-04 19:07 | 50.86513 | 7.12914 | 247 ft | 90 kts | 318° |
| 2026-05-04 19:07 | 50.87072 | 7.12084 | 428 ft | 125 kts | 319° |
| 2026-05-04 19:07 | 50.87842 | 7.11333 | 791 ft | 121 kts | 339° |
| 2026-05-04 19:08 | 50.88618 | 7.11030 | 1341 ft | 121 kts | 354° |
| 2026-05-04 19:08 | 50.89508 | 7.11101 | 1628 ft | 131 kts | 19° |
| 2026-05-04 19:08 | 50.90302 | 7.11682 | 1992 ft | 133 kts | 25° |
| 2026-05-04 19:08 | 50.91142 | 7.12254 | 2431 ft | 130 kts | 22° |
| 2026-05-04 19:09 | 50.91982 | 7.12802 | 2859 ft | 131 kts | 21° |
| 2026-05-04 19:09 | 50.92816 | 7.13338 | 3345 ft | 127 kts | 21° |
| 2026-05-04 19:09 | 50.93529 | 7.14105 | 3792 ft | 127 kts | 56° |
| 2026-05-04 19:09 | 50.93950 | 7.15393 | 4331 ft | 135 kts | 66° |
| 2026-05-04 19:10 | 50.94386 | 7.16746 | 4931 ft | 140 kts | 67° |
| 2026-05-04 19:10 | 50.94831 | 7.18144 | 5536 ft | 144 kts | 68° |
| 2026-05-04 19:10 | 50.95286 | 7.19579 | 6157 ft | 147 kts | 68° |
| 2026-05-04 19:10 | 50.95751 | 7.21043 | 6772 ft | 150 kts | 68° |
| 2026-05-04 19:11 | 50.96221 | 7.22526 | 7376 ft | 151 kts | 69° |
| 2026-05-04 19:11 | 50.96697 | 7.24027 | 7998 ft | 153 kts | 69° |
| 2026-05-04 19:11 | 50.97174 | 7.25537 | 8636 ft | 154 kts | 69° |
| 2026-05-04 19:11 | 50.97657 | 7.27060 | 9293 ft | 155 kts | 69° |
| 2026-05-04 19:12 | 50.97976 | 7.28070 | 9740 ft | 155 kts | 69° |
| 2026-05-04 19:12 | 50.99331 | 7.32394 | 10213 ft | 210 kts | 67° |
| 2026-05-04 19:12 | 50.99777 | 7.33788 | 10566 ft | 208 kts | 67° |
| 2026-05-04 19:13 | 51.00426 | 7.35834 | 11057 ft | 207 kts | 67° |
| 2026-05-04 19:13 | 51.01059 | 7.37847 | 11538 ft | 207 kts | 67° |
| 2026-05-04 19:13 | 51.01687 | 7.39898 | 12027 ft | 206 kts | 72° |
| 2026-05-04 19:13 | 51.01937 | 7.42093 | 12515 ft | 200 kts | 96° |
| 2026-05-04 19:14 | 51.01698 | 7.44223 | 13015 ft | 195 kts | 113° |
| 2026-05-04 19:14 | 51.01285 | 7.46280 | 13525 ft | 195 kts | 112° |
| 2026-05-04 19:14 | 51.00887 | 7.48355 | 13956 ft | 200 kts | 112° |
| 2026-05-04 19:14 | 51.00454 | 7.50549 | 13980 ft | 221 kts | 112° |
| 2026-05-04 19:15 | 50.99979 | 7.52960 | 13990 ft | 235 kts | 111° |
| 2026-05-04 19:15 | 50.99487 | 7.55483 | 13992 ft | 244 kts | 111° |
| 2026-05-04 19:15 | 50.98800 | 7.58991 | 13988 ft | 252 kts | 111° |
| 2026-05-04 19:15 | 50.98454 | 7.60755 | 13989 ft | 255 kts | 111° |
| 2026-05-04 19:16 | 50.97922 | 7.63461 | 13989 ft | 258 kts | 111° |
| 2026-05-04 19:16 | 50.97389 | 7.66172 | 13985 ft | 255 kts | 111° |
| 2026-05-04 19:16 | 50.96866 | 7.68830 | 13991 ft | 249 kts | 111° |
| 2026-05-04 19:16 | 50.96351 | 7.71443 | 13985 ft | 246 kts | 111° |
| 2026-05-04 19:17 | 50.95840 | 7.74022 | 13989 ft | 245 kts | 112° |
| 2026-05-04 19:17 | 50.95330 | 7.76595 | 13984 ft | 244 kts | 111° |
| 2026-05-04 19:17 | 50.94841 | 7.79175 | 13979 ft | 245 kts | 107° |
| 2026-05-04 19:17 | 50.94769 | 7.81891 | 13981 ft | 250 kts | 86° |
| 2026-05-04 19:18 | 50.95253 | 7.84564 | 13977 ft | 255 kts | 66° |
| 2026-05-04 19:18 | 50.96140 | 7.86999 | 13983 ft | 256 kts | 61° |
| 2026-05-04 19:18 | 50.97014 | 7.89330 | 14380 ft | 242 kts | 62° |
| 2026-05-04 19:18 | 50.97855 | 7.91603 | 14870 ft | 235 kts | 62° |
| 2026-05-04 19:19 | 50.98678 | 7.93829 | 15344 ft | 231 kts | 62° |
| 2026-05-04 19:19 | 50.99490 | 7.96025 | 15808 ft | 229 kts | 62° |
| 2026-05-04 19:19 | 51.00296 | 7.98208 | 16258 ft | 229 kts | 62° |
| 2026-05-04 19:19 | 51.01100 | 8.00385 | 16724 ft | 229 kts | 62° |
| 2026-05-04 19:20 | 51.01906 | 8.02567 | 17203 ft | 229 kts | 61° |
| 2026-05-04 19:20 | 51.03025 | 8.04364 | 17643 ft | 233 kts | 28° |
| 2026-05-04 19:20 | 51.04580 | 8.04925 | 18095 ft | 230 kts | 353° |